createdAt,value
2022-09-05T00:01:28.190Z,10.00
2022-09-05T00:04:26.119Z,7.85
2022-09-05T00:07:02.018Z,8.98
2022-09-05T00:10:05.735Z,9.87
2022-09-05T00:12:34.171Z,10.45
2022-09-05T00:15:16.890Z,7.60
2022-09-05T00:21:36.760Z,8.63
2022-09-05T00:24:26.774Z,5.35
2022-09-05T00:24:32.280Z,7.97
2022-09-05T00:27:33.326Z,9.38
2022-09-05T00:31:28.989Z,10.30
2022-09-05T00:33:17.484Z,8.38
2022-09-05T00:36:21.677Z,9.48
2022-09-05T00:39:07.633Z,11.77
2022-09-05T00:41:35.363Z,10.57
2022-09-05T00:44:04.087Z,10.13
2022-09-05T00:46:41.125Z,8.48
2022-09-05T00:49:24.083Z,8.65
2022-09-05T00:52:04.072Z,9.00
2022-09-05T00:54:53.968Z,10.05
2022-09-05T00:57:46.043Z,13.20
2022-09-05T01:00:18.307Z,10.05
2022-09-05T01:03:10.174Z,7.45
2022-09-05T01:05:40.770Z,6.80
2022-09-05T01:08:39.360Z,11.45
2022-09-05T01:11:27.628Z,9.57
2022-09-05T01:14:22.002Z,11.48
2022-09-05T01:17:17.482Z,11.02
2022-09-05T01:20:21.289Z,8.20
2022-09-05T01:23:13.285Z,12.88
2022-09-05T01:26:09.028Z,8.77
2022-09-05T01:29:15.939Z,9.23
2022-09-05T01:31:59.401Z,15.93
2022-09-05T01:35:02.094Z,8.07
2022-09-05T01:37:33.032Z,7.53
2022-09-05T01:40:36.450Z,9.82
2022-09-05T01:43:25.712Z,7.97
2022-09-05T01:46:18.753Z,8.20
2022-09-05T01:48:58.351Z,9.47
2022-09-05T01:51:36.935Z,9.93
2022-09-05T01:54:30.089Z,8.45
2022-09-05T01:57:21.253Z,7.93
2022-09-05T02:00:07.366Z,6.00
2022-09-05T02:02:51.285Z,7.37
2022-09-05T02:05:48.816Z,10.13
2022-09-05T02:08:22.616Z,9.18
2022-09-05T02:11:04.144Z,11.23
2022-09-05T02:13:33.688Z,16.83
2022-09-05T02:16:18.302Z,16.83
2022-09-05T02:19:01.294Z,10.95
2022-09-05T02:21:38.276Z,14.15
2022-09-05T02:24:44.640Z,7.38
2022-09-05T02:27:33.167Z,7.28
2022-09-05T02:30:25.014Z,12.30
2022-09-05T02:33:10.486Z,11.10
2022-09-05T02:35:56.026Z,9.15
2022-09-05T02:41:01.179Z,7.50
2022-09-05T02:45:17.101Z,9.30
2022-09-05T02:45:21.827Z,15.32
2022-09-05T02:47:30.273Z,10.50
2022-09-05T02:53:19.682Z,10.90
2022-09-05T02:57:26.857Z,7.30
2022-09-05T02:57:35.009Z,8.30
2022-09-05T02:59:10.545Z,9.87
2022-09-05T03:01:56.910Z,9.80
2022-09-05T03:04:48.022Z,10.35
2022-09-05T03:07:44.665Z,8.43
2022-09-05T03:10:53.352Z,11.80
2022-09-05T03:13:58.413Z,10.03
2022-09-05T03:17:02.767Z,10.65
2022-09-05T03:19:46.156Z,12.63
2022-09-05T03:22:38.382Z,11.13
2022-09-05T03:25:20.178Z,12.05
2022-09-05T03:28:15.933Z,10.57
2022-09-05T03:31:21.995Z,13.63
2022-09-05T03:34:17.548Z,14.00
2022-09-05T03:36:53.871Z,15.23
2022-09-05T03:39:32.880Z,14.00
2022-09-05T03:42:30.816Z,10.70
2022-09-05T03:45:16.826Z,10.73
2022-09-05T03:48:40.449Z,14.50
2022-09-05T03:57:12.367Z,12.90
2022-09-05T03:57:26.749Z,14.30
2022-09-05T03:58:16.495Z,17.07
2022-09-05T04:01:35.845Z,23.95
2022-09-05T04:08:28.550Z,16.23
2022-09-05T04:08:30.677Z,12.90
2022-09-05T04:09:58.408Z,18.38
2022-09-05T04:12:38.652Z,13.40
2022-09-05T04:15:08.542Z,15.15
2022-09-05T04:17:49.378Z,17.80
2022-09-05T04:20:25.793Z,16.50
2022-09-05T04:23:25.069Z,19.20
2022-09-05T04:26:17.186Z,21.50
2022-09-05T04:29:03.462Z,13.75
2022-09-05T04:32:00.957Z,15.75
2022-09-05T04:34:57.854Z,23.67
2022-09-05T04:37:47.899Z,15.80
2022-09-05T04:40:34.440Z,15.70
2022-09-05T04:43:21.160Z,20.67
2022-09-05T04:46:18.271Z,17.15
2022-09-05T04:48:55.873Z,14.43
2022-09-05T04:51:46.984Z,16.40
2022-09-05T04:54:57.663Z,26.37
2022-09-05T04:57:56.748Z,17.55
2022-09-05T05:06:02.310Z,13.63
2022-09-05T05:06:13.495Z,23.85
2022-09-05T05:06:44.486Z,14.38
2022-09-05T05:09:27.962Z,21.13
2022-09-05T05:17:56.164Z,25.27
2022-09-05T05:18:15.141Z,17.30
2022-09-05T05:18:41.038Z,20.15
2022-09-05T05:21:17.566Z,21.05
2022-09-05T05:24:11.127Z,25.27
2022-09-05T05:26:57.110Z,19.50
2022-09-05T05:29:27.201Z,21.17
2022-09-05T05:31:57.082Z,20.33
2022-09-05T05:34:29.408Z,20.25
2022-09-05T05:37:05.295Z,21.53
2022-09-05T05:39:37.605Z,24.05
2022-09-05T05:42:20.920Z,24.58
2022-09-05T05:44:53.858Z,25.65
2022-09-05T05:47:28.376Z,20.40
2022-09-05T05:50:33.415Z,20.97
2022-09-05T05:53:10.246Z,25.60
2022-09-05T05:56:08.510Z,22.77
2022-09-05T05:58:41.103Z,25.38
2022-09-05T06:01:32.975Z,22.23
2022-09-05T06:04:43.296Z,17.90
2022-09-05T06:07:40.767Z,18.38
2022-09-05T06:14:50.284Z,23.48
2022-09-05T06:15:09.153Z,21.58
2022-09-05T06:17:29.926Z,30.45
2022-09-05T06:22:04.441Z,17.87
2022-09-05T06:23:39.288Z,21.65
2022-09-05T06:26:21.629Z,20.40
2022-09-05T06:29:18.686Z,19.08
2022-09-05T06:32:17.584Z,24.55
2022-09-05T06:35:02.584Z,22.97
2022-09-05T06:37:47.148Z,24.98
2022-09-05T06:40:31.924Z,24.75
2022-09-05T06:43:09.592Z,20.48
2022-09-05T06:46:04.366Z,20.95
2022-09-05T06:49:29.763Z,18.90
2022-09-05T06:52:27.944Z,17.35
2022-09-05T06:55:21.899Z,21.85
2022-09-05T06:57:59.441Z,22.63
2022-09-05T07:00:29.530Z,18.17
2022-09-05T07:03:18.320Z,24.77
2022-09-05T07:06:06.862Z,23.70
2022-09-05T07:09:12.048Z,27.40
2022-09-05T07:11:42.119Z,23.98
2022-09-05T07:14:19.417Z,21.85
2022-09-05T07:17:08.901Z,19.63
2022-09-05T07:19:57.933Z,18.40
2022-09-05T07:22:47.813Z,20.17
2022-09-05T07:25:37.308Z,27.92
2022-09-05T07:28:27.102Z,16.60
2022-09-05T07:31:10.250Z,25.93
2022-09-05T07:33:39.734Z,21.02
2022-09-05T07:36:16.012Z,16.95
2022-09-05T07:39:02.427Z,17.95
2022-09-05T07:41:42.366Z,16.83
2022-09-05T07:44:27.651Z,20.57
2022-09-05T07:47:22.093Z,18.70
2022-09-05T07:50:21.027Z,17.77
2022-09-05T07:56:49.252Z,18.05
2022-09-05T07:57:09.518Z,13.45
2022-09-05T07:58:41.633Z,16.80
2022-09-05T08:01:12.895Z,15.82
2022-09-05T08:03:42.300Z,15.77
2022-09-05T08:06:16.277Z,16.13
2022-09-05T08:10:00.901Z,16.25
2022-09-05T08:12:02.295Z,14.10
2022-09-05T08:14:56.853Z,16.60
2022-09-05T08:17:29.873Z,12.88
2022-09-05T08:20:08.929Z,15.50
2022-09-05T08:23:09.355Z,19.90
2022-09-05T08:25:57.632Z,14.00
2022-09-05T08:28:39.904Z,8.57
2022-09-05T08:31:14.958Z,11.80
2022-09-05T08:33:44.203Z,16.75
2022-09-05T08:36:25.162Z,16.10
2022-09-05T08:38:53.305Z,9.10
2022-09-05T08:41:52.437Z,11.70
2022-09-05T08:46:44.173Z,15.13
2022-09-05T08:47:56.626Z,14.77
2022-09-05T08:50:47.979Z,10.55
2022-09-05T08:53:41.115Z,10.82
2022-09-05T08:56:22.068Z,9.73
2022-09-05T08:59:27.741Z,7.15
2022-09-05T09:02:47.109Z,10.35
2022-09-05T09:05:58.121Z,8.93
2022-09-05T09:08:46.034Z,8.38
2022-09-05T09:11:26.119Z,7.13
2022-09-05T09:13:55.173Z,7.60
2022-09-05T09:17:02.109Z,9.80
2022-09-05T09:20:09.804Z,11.52
2022-09-05T09:22:39.541Z,9.10
2022-09-05T09:25:31.834Z,10.57
2022-09-05T09:28:49.986Z,6.17
2022-09-05T09:31:40.717Z,6.03
2022-09-05T09:34:26.742Z,7.82
2022-09-05T09:36:59.466Z,7.28
2022-09-05T09:39:37.314Z,9.20
2022-09-05T09:42:38.314Z,7.47
2022-09-05T09:45:28.519Z,11.87
2022-09-05T09:48:05.188Z,7.82
2022-09-05T09:50:59.247Z,7.68
2022-09-05T09:53:44.384Z,4.68
2022-09-05T09:56:46.242Z,5.82
2022-09-05T09:59:33.849Z,4.32
2022-09-05T10:05:18.234Z,6.43
2022-09-05T10:10:46.649Z,6.47
2022-09-05T10:10:52.194Z,4.00
2022-09-05T10:15:30.502Z,5.40
2022-09-05T10:18:05.009Z,4.47
2022-09-05T10:21:16.664Z,6.00
2022-09-05T10:23:59.592Z,4.03
2022-09-05T10:27:04.913Z,7.85
2022-09-05T10:29:40.505Z,4.22
2022-09-05T10:35:04.487Z,6.95
2022-09-05T10:35:25.379Z,5.23
2022-09-05T10:38:10.291Z,11.63
2022-09-05T10:41:08.131Z,6.28
2022-09-05T10:43:30.001Z,4.10
2022-09-05T10:45:56.940Z,11.63
2022-09-05T10:48:28.754Z,5.55
2022-09-05T10:51:11.837Z,5.82
2022-09-05T10:54:03.350Z,10.43
2022-09-05T10:56:37.447Z,3.23
2022-09-05T11:01:08.308Z,7.90
2022-09-05T11:02:27.377Z,6.82
2022-09-05T11:05:12.108Z,5.47
2022-09-05T11:08:07.643Z,3.95
2022-09-05T11:11:06.141Z,3.63
2022-09-05T11:13:47.558Z,6.10
2022-09-05T11:16:29.499Z,6.03
2022-09-05T11:19:27.248Z,2.95
2022-09-05T11:22:01.796Z,3.55
2022-09-05T11:25:02.532Z,6.50
2022-09-05T11:27:40.116Z,8.15
2022-09-05T11:30:30.523Z,3.45
2022-09-05T11:36:23.642Z,5.10
2022-09-05T11:39:50.485Z,4.03
2022-09-05T11:40:09.884Z,2.65
2022-09-05T11:42:14.877Z,12.07
2022-09-05T11:45:06.365Z,2.95
2022-09-05T11:48:10.853Z,7.68
2022-09-05T11:51:13.999Z,2.95
2022-09-05T11:54:02.148Z,3.38
2022-09-05T11:56:52.312Z,6.20
2022-09-05T11:59:44.957Z,6.47
2022-09-05T12:02:38.606Z,7.72
2022-09-05T12:05:59.307Z,4.50
2022-09-05T12:08:39.763Z,2.72
2022-09-05T12:11:25.249Z,3.72
2022-09-05T12:14:01.276Z,3.83
2022-09-05T12:17:03.127Z,4.10
2022-09-05T12:20:04.130Z,4.63
2022-09-05T12:22:47.397Z,4.68
2022-09-05T12:27:39.109Z,2.65
2022-09-05T12:29:33.393Z,4.78
2022-09-05T12:32:31.047Z,3.00
2022-09-05T12:36:07.376Z,5.55
2022-09-05T12:40:40.331Z,3.20
2022-09-05T12:41:42.755Z,3.60
2022-09-05T12:44:42.614Z,5.05
2022-09-05T12:47:18.724Z,3.80
2022-09-05T12:50:04.384Z,5.65
2022-09-05T12:52:59.885Z,3.50
2022-09-05T12:55:33.379Z,5.68
2022-09-05T13:02:57.552Z,5.33
2022-09-05T13:03:01.348Z,7.93
2022-09-05T13:04:18.151Z,3.47
2022-09-05T13:06:54.193Z,9.30
2022-09-05T13:10:26.220Z,9.65
2022-09-05T13:14:52.983Z,7.22
2022-09-05T13:15:27.341Z,7.43
2022-09-05T13:18:02.655Z,3.50
2022-09-05T13:20:36.515Z,3.80
2022-09-05T13:23:09.223Z,4.07
2022-09-05T13:25:37.230Z,7.17
2022-09-05T13:28:10.546Z,5.10
2022-09-05T13:37:39.547Z,4.93
2022-09-05T13:37:55.666Z,4.95
2022-09-05T13:38:15.760Z,6.18
2022-09-05T13:39:28.251Z,3.45
2022-09-05T13:41:59.545Z,4.20
2022-09-05T13:44:28.252Z,5.90
2022-09-05T13:47:33.595Z,7.60
2022-09-05T13:50:17.416Z,4.43
2022-09-05T13:52:49.657Z,5.43
2022-09-05T13:55:25.286Z,3.72
2022-09-05T13:58:00.389Z,8.48
2022-09-05T14:00:38.172Z,8.07
2022-09-05T14:03:38.087Z,6.85
2022-09-05T14:06:47.825Z,5.22
2022-09-05T14:09:51.402Z,7.37
2022-09-05T14:12:49.247Z,5.10
2022-09-05T14:15:29.242Z,7.88
2022-09-05T14:18:21.068Z,6.32
2022-09-05T14:21:20.240Z,5.43
2022-09-05T14:23:56.026Z,4.72
2022-09-05T14:26:35.870Z,5.33
2022-09-05T14:29:26.247Z,3.13
2022-09-05T14:37:48.704Z,8.25
2022-09-05T14:37:54.492Z,3.88
2022-09-05T14:38:39.508Z,3.42
2022-09-05T14:41:43.212Z,6.45
2022-09-05T14:44:37.913Z,3.85
2022-09-05T14:47:37.490Z,5.60
2022-09-05T14:50:17.931Z,7.17
2022-09-05T14:58:49.181Z,8.65
2022-09-05T15:02:43.843Z,5.38
2022-09-05T15:02:58.756Z,7.28
2022-09-05T15:05:40.801Z,8.18
2022-09-05T15:08:57.365Z,4.15
2022-09-05T15:12:15.441Z,8.13
2022-09-05T15:14:06.371Z,9.20
2022-09-05T15:16:43.716Z,6.43
2022-09-05T15:19:14.064Z,10.90
2022-09-05T15:21:41.546Z,3.58
2022-09-05T15:24:21.199Z,5.88
2022-09-05T15:26:57.256Z,4.68
2022-09-05T15:29:29.333Z,7.20
2022-09-05T15:32:21.456Z,6.13
2022-09-05T15:34:49.944Z,8.15
2022-09-05T15:37:38.689Z,4.87
2022-09-05T15:40:23.373Z,3.50
2022-09-05T15:42:51.235Z,6.38
2022-09-05T15:45:23.876Z,13.45
2022-09-05T15:48:15.224Z,5.85
2022-09-05T15:50:55.733Z,7.50
2022-09-05T15:53:29.522Z,2.85
2022-09-05T15:56:24.522Z,3.72
2022-09-05T15:58:55.290Z,8.10
2022-09-05T16:01:49.896Z,7.30
2022-09-05T16:09:04.676Z,7.07
2022-09-05T16:10:39.977Z,6.93
2022-09-05T16:10:48.233Z,4.43
2022-09-05T16:13:17.178Z,5.25
2022-09-05T16:21:51.315Z,7.07
2022-09-05T16:23:32.676Z,6.03
2022-09-05T16:23:33.599Z,3.63
2022-09-05T16:24:41.566Z,4.95
2022-09-05T16:27:43.975Z,7.32
2022-09-05T16:30:19.332Z,4.15
2022-09-05T16:32:51.625Z,5.53
2022-09-05T16:35:25.103Z,5.18
2022-09-05T16:38:49.151Z,8.40
2022-09-05T16:41:51.080Z,16.47
2022-09-05T16:44:32.722Z,14.27
2022-09-05T16:47:13.883Z,4.72
2022-09-05T16:49:53.764Z,13.52
2022-09-05T16:52:56.202Z,9.50
2022-09-05T16:55:31.605Z,16.02
2022-09-05T16:58:14.116Z,7.27
2022-09-05T17:01:12.944Z,5.33
2022-09-05T17:04:03.593Z,3.92
2022-09-05T17:06:53.461Z,7.32
2022-09-05T17:09:24.459Z,3.70
2022-09-05T17:12:02.131Z,8.88
2022-09-05T17:14:39.536Z,10.90
2022-09-05T17:17:44.051Z,4.37
2022-09-05T17:20:14.498Z,3.13
2022-09-05T17:29:18.429Z,10.65
2022-09-05T17:29:49.406Z,4.72
2022-09-05T17:29:49.645Z,12.80
2022-09-05T17:31:57.949Z,7.65
2022-09-05T17:34:46.335Z,10.15
2022-09-05T17:38:02.940Z,4.50
2022-09-05T17:40:59.469Z,8.77
2022-09-05T17:43:33.571Z,5.43
2022-09-05T17:46:24.289Z,5.72
2022-09-05T17:49:18.648Z,8.77
2022-09-05T17:51:51.378Z,5.47
2022-09-05T17:54:33.512Z,57.15
2022-09-05T17:57:28.593Z,18.87
2022-09-05T17:59:57.579Z,48.87
2022-09-05T18:02:26.585Z,13.75
2022-09-05T18:04:54.437Z,6.72
2022-09-05T18:07:28.547Z,8.60
2022-09-05T18:10:15.002Z,11.35
2022-09-05T18:13:13.767Z,8.40
2022-09-05T18:15:31.769Z,9.00
2022-09-05T18:18:16.934Z,13.02
2022-09-05T18:21:12.296Z,16.45
2022-09-05T18:23:58.109Z,6.05
2022-09-05T18:26:27.849Z,11.45
2022-09-05T18:29:28.734Z,6.80
2022-09-05T18:32:13.758Z,12.20
2022-09-05T18:34:43.118Z,6.97
2022-09-05T18:37:36.766Z,8.40
2022-09-05T18:40:07.516Z,7.60
2022-09-05T18:42:42.849Z,11.02
2022-09-05T18:45:28.719Z,8.43
2022-09-05T18:48:02.440Z,10.23
2022-09-05T18:50:33.970Z,10.40
2022-09-05T18:53:08.872Z,4.63
2022-09-05T18:56:10.093Z,9.77
2022-09-05T18:58:51.829Z,7.55
2022-09-05T19:01:31.295Z,6.57
2022-09-05T19:04:02.036Z,5.27
2022-09-05T19:06:36.307Z,3.90
2022-09-05T19:09:08.984Z,4.25
2022-09-05T19:11:53.924Z,4.93
2022-09-05T19:14:44.956Z,8.38
2022-09-05T19:17:30.483Z,7.67
2022-09-05T19:20:30.579Z,5.10
2022-09-05T19:23:11.002Z,6.10
2022-09-05T19:25:44.956Z,3.35
2022-09-05T19:36:47.092Z,5.78
2022-09-05T19:36:52.840Z,5.95
2022-09-05T19:37:11.971Z,8.20
2022-09-05T19:37:44.549Z,3.92
2022-09-05T19:47:28.639Z,6.32
2022-09-05T19:47:44.909Z,2.72
2022-09-05T19:47:48.369Z,2.78
2022-09-05T19:49:10.621Z,3.07
2022-09-05T19:51:38.581Z,3.53
2022-09-05T19:54:08.841Z,3.88
2022-09-05T19:56:40.453Z,4.57
2022-09-05T19:59:24.507Z,5.65
2022-09-05T20:01:53.300Z,3.50
2022-09-05T20:04:21.533Z,6.10
2022-09-05T20:06:50.271Z,2.20
2022-09-05T20:09:22.657Z,7.85
2022-09-05T20:11:58.197Z,8.82
2022-09-05T20:14:30.732Z,6.43
2022-09-05T20:17:31.604Z,5.47
2022-09-05T20:20:11.508Z,8.50
2022-09-05T20:22:47.994Z,11.70
2022-09-05T20:25:36.416Z,10.40
2022-09-05T20:28:14.363Z,7.22
2022-09-05T20:30:48.314Z,5.87
2022-09-05T20:33:29.440Z,4.10
2022-09-05T20:43:10.102Z,5.15
2022-09-05T20:43:15.202Z,4.50
2022-09-05T20:43:23.027Z,7.40
2022-09-05T20:44:51.775Z,4.40
2022-09-05T20:54:04.258Z,3.83
2022-09-05T20:54:19.246Z,5.68
2022-09-05T20:54:20.342Z,5.82
2022-09-05T20:56:22.706Z,7.78
2022-09-05T20:58:51.250Z,6.60
2022-09-05T21:01:23.196Z,7.88
2022-09-05T21:04:05.527Z,6.75
2022-09-05T21:06:37.113Z,5.75
2022-09-05T21:09:26.079Z,4.85
2022-09-05T21:11:59.045Z,4.57
2022-09-05T21:14:28.800Z,7.70
2022-09-05T21:17:11.991Z,8.40
2022-09-05T21:19:42.601Z,5.82
2022-09-05T21:22:18.976Z,8.57
2022-09-05T21:24:47.374Z,8.93
2022-09-05T21:27:17.474Z,7.28
2022-09-05T21:29:45.537Z,5.90
2022-09-05T21:32:18.517Z,9.27
2022-09-05T21:34:52.237Z,4.78
2022-09-05T21:37:20.428Z,6.80
2022-09-05T21:39:59.080Z,6.88
2022-09-05T21:47:20.365Z,7.28
2022-09-05T21:47:48.740Z,7.20
2022-09-05T21:48:19.854Z,9.98
2022-09-05T21:50:52.044Z,6.97
2022-09-05T21:55:35.666Z,8.13
2022-09-05T21:59:33.069Z,7.47
2022-09-05T22:02:08.669Z,7.82
2022-09-05T22:04:40.857Z,9.53
2022-09-05T22:07:08.812Z,5.93
2022-09-05T22:09:35.584Z,5.90
2022-09-05T22:12:19.559Z,7.53
2022-09-05T22:14:49.676Z,5.40
2022-09-05T22:17:21.290Z,5.50
2022-09-05T22:19:50.069Z,5.43
2022-09-05T22:22:18.856Z,6.28
2022-09-05T22:25:04.560Z,6.05
2022-09-05T22:27:33.688Z,7.22
2022-09-05T22:30:01.900Z,6.63
2022-09-05T22:32:33.741Z,15.85
2022-09-05T22:35:27.181Z,6.10
2022-09-05T22:38:05.998Z,8.85
2022-09-05T22:40:34.517Z,10.45
2022-09-05T22:43:04.595Z,5.90
2022-09-05T22:45:35.283Z,6.97
2022-09-05T22:48:14.966Z,5.50
2022-09-05T22:50:45.144Z,8.07
2022-09-05T22:53:12.274Z,4.10
2022-09-05T22:55:41.902Z,7.30
2022-09-05T22:58:11.467Z,3.13
2022-09-05T23:00:38.993Z,4.43
2022-09-05T23:03:06.643Z,3.00
2022-09-05T23:05:34.789Z,5.68
2022-09-05T23:08:03.910Z,3.40
2022-09-05T23:10:31.498Z,2.45
2022-09-05T23:12:58.739Z,4.47
2022-09-05T23:15:26.361Z,5.03
2022-09-05T23:17:55.646Z,7.85
2022-09-05T23:20:24.504Z,4.63
2022-09-05T23:22:51.710Z,7.30
2022-09-05T23:25:19.272Z,4.53
2022-09-05T23:27:46.657Z,3.30
2022-09-05T23:30:13.876Z,3.53
2022-09-05T23:32:45.279Z,4.67
2022-09-05T23:35:14.070Z,2.30
2022-09-05T23:37:43.557Z,3.10
2022-09-05T23:40:23.882Z,3.88
2022-09-05T23:42:53.185Z,3.05
2022-09-05T23:45:20.490Z,2.63
2022-09-05T23:47:47.914Z,2.90
2022-09-05T23:50:15.514Z,2.85
2022-09-05T23:52:43.580Z,7.22
2022-09-05T23:55:14.266Z,3.30
2022-09-05T23:57:42.060Z,3.00
